East Orland, ME

7:19 PM EST on February 06, 2016 (GMT -0500)
Town of Orland field next to Toddy Pond | | Change Station
CLOSE
Current Station
Personal Weather Station
Location: Orland, ME
Elevation: 164 ft
Nearby Weather Stations

Elev 164 ft 44.57 °N, 68.68 °W | Updated 24 seconds ago

Partly Cloudy
Partly Cloudy
32.2 °F
Feels Like 32 °F
N
1.8
Wind Variable Wind from WNW
Gusts 2.5 mph

Today
High -- | Low -- °F
--% Chance of Precip.
Yesterday
High -- | Low -- °F
Precip. -- in
Pressure 30.19 in
Visibility 10.0 miles
Clouds Mostly Cloudy 7000 ft
Mostly Cloudy 11000 ft
Mostly Cloudy 25000 ft
Windchill 32 °F
Dew Point 24 °F
Humidity 72%
Rainfall 0.02 in
Snow Depth Not available.
6:48 AM 4:49 PM
Waning Crescent, 3% visible
METAR KBGR 062353Z 19007KT 10SM BKN070 BKN110 BKN250 M01/M05 A3017 RMK AO2 SLP222 4/009 T10111050 10011 21011 53002
Pressure 30.19 in
Visibility 10.0 miles
Clouds Mostly Cloudy 7000 ft
Mostly Cloudy 11000 ft
Mostly Cloudy 25000 ft
Windchill 32 °F
Dew Point 24 °F
Humidity 72%
Rainfall 0.02 in
Snow Depth Not available.
6:48 AM 4:49 PM
Waning Crescent, 3% visible
METAR KBGR 062353Z 19007KT 10SM BKN070 BKN110 BKN250 M01/M05 A3017 RMK AO2 SLP222 4/009 T10111050 10011 21011 53002

10-Day Weather Forecast

Almanac

Astronomy

Feb. 06, 2016 Rise Set
Actual Time
Civil Twilight
Nautical Twilight
Astronomical Twilight
Moon
Length of Visible Light
Length of Day
Tomorrow will be .
, % of the Moon is Illuminated

Today's Extremes

State Highs State Lows

Community

WunderPhotos

Upload Photos

1,891,105 photos uploaded!

WunderBlog® & News

Nearby

Air Quality

  Air Quality AQ Index Pollutant
Not available.

Snow Depth

Station Depth Elevation

Earthquake Activity

City Distance Mag. Time & Date
Minimum magnitude displayed is 2.5.

Coastal Water Temperatures

Place Temperature

Stations

Nearby Weather Stations

Station Location Temp. Windchill Dew Point Humidity Wind Precip. Elev Updated Type
                   

Watches & Warnings

There are currently no watches in effect.